• Join FlightAware (Why Join?)
  • Login
  • US Flag 
12:42PM EDT


 

Airport Tracker/Info


-or-


 

Live Flight TrackerFlight Track Log ✈ ASQ5941 ✈ 07-May-2013 ✈ KAVP - KORD

Flight Track Log - Related Links

Times and Time Zones

All times are in EDT time to prevent confusion due to time zone crossing. See the ASQ5941 flight status page for this flight to view local times or setup timezone preferences in your user account.

Time Position Orientation Groundspeed Altitude Reporting Facility
EDT Latitude Longitude Course Direction KTS MPH feet Rate Location/Type
06:30PM 41.4480 -75.9794 304° West  Level FlightAware Approximate
06:30PM 41.5039 -75.7156 North 257 296 7,400  Level New York Center
06:31PM 41.5073 -76.0708 315° West  Level FlightAware Approximate
06:31PM 41.5594 -75.7833 318° Northwest 275 316 9,700  Level New York Center
06:32PM 41.5683 -76.1608 312° West  Level FlightAware Approximate
06:32PM 41.5939 -75.8994 292° West 297 342 11,000  Level New York Center
06:33PM 41.6248 -76.2559 307° West  Level FlightAware Approximate
06:33PM 41.6283 -76.0189 291° West 331 381 12,000  Level New York Center
06:34PM 41.6796 -76.3531 307° West  Level FlightAware Approximate
06:34PM 41.6606 -76.1350 290° West 363 418 13,300  Level New York Center
06:35PM 41.7341 -76.4500 North  Level FlightAware Approximate
06:35PM 41.7114 -76.2531 300° West 368 423 14,800  Level New York Center
06:36PM 41.7817 -76.3536 313° West 368 423 16,300 1,440 Climbing New York Center
06:37PM 41.8539 -76.4542 314° West 373 429 17,800 1,440 Climbing New York Center
06:38PM 41.9467 -76.5208 332° Northwest 373 429 19,200 1,380 Climbing New York Center
06:39PM 42.0233 -76.6111 319° Northwest 373 429 20,600 1,080 Climbing New York Center
06:41PM 42.0931 -76.9733 285° West 391 450 23,000 960 Climbing Cleveland Center
06:42PM 42.1206 -77.1256 284° West 410 472 24,000 1,080 Climbing Cleveland Center
06:43PM 42.1503 -77.2808 285° West 421 484 25,200 1,200 Climbing Cleveland Center
06:44PM 42.1753 -77.4308 283° West 421 484 26,400 1,200 Climbing Cleveland Center
06:45PM 42.2022 -77.5811 284° West 421 484 27,600 1,200 Climbing Cleveland Center
06:46PM 42.2311 -77.7283 285° West 415 478 28,900 1,200 Climbing Cleveland Center
06:47PM 42.2556 -77.8758 283° West 410 472 30,100 1,200 Climbing Cleveland Center
06:48PM 42.2817 -78.0236 283° West 410 472 31,300 1,020 Climbing Cleveland Center
06:49PM 42.3100 -78.1769 284° West 410 472 32,200 780 Climbing Cleveland Center
06:50PM 42.3361 -78.3333 283° West 416 479 32,900 360 Climbing Cleveland Center
06:51PM 42.3619 -78.4925 282° West 428 493 33,000 300 Climbing Cleveland Center
06:52PM 42.3900 -78.6631 283° West 448 516 33,600 480 Climbing Cleveland Center
06:53PM 42.4200 -78.8339 283° West 462 532 34,000 180 Climbing Cleveland Center
06:54PM 42.4497 -79.0214 282° West 467 537 34,000 420 Level Cleveland Center
06:55PM 42.4767 -79.1728 284° West 467 537 34,900 960 Climbing Cleveland Center
06:56PM 42.4953 -79.3414 279° West 467 537 36,000 540 Climbing Cleveland Center
06:57PM 42.5031 -79.5103 274° West 462 532 36,000  Level Cleveland Center
06:58PM 42.5131 -79.6819 275° West 462 532 36,000  Level Cleveland Center
06:59PM 42.5206 -79.8564 273° West 462 532 36,000  Level Cleveland Center
07:00PM 42.5278 -80.0450 273° West 462 532 36,000  Level Cleveland Center
07:01PM 42.5347 -80.2197 273° West 462 532 36,000  Level Cleveland Center
07:02PM 42.5414 -80.3917 273° West 462 532 36,000  Level Cleveland Center
07:03PM 42.5497 -80.5692 274° West 462 532 36,000  Level Cleveland Center
07:04PM 42.5561 -80.7214 273° West 467 537 36,000  Level Cleveland Center
07:05PM 42.5597 -80.8961 272° West 462 532 36,000  Level Cleveland Center
07:06PM 42.5675 -81.0708 274° West 468 539 36,000  Level Cleveland Center
07:07PM 42.5750 -81.2486 273° West 462 532 36,000  Level Cleveland Center
07:08PM 42.5800 -81.4233 272° West 462 532 36,000  Level Cleveland Center
07:09PM 42.6081 -81.5903 283° West 462 532 36,000  Level Cleveland Center
07:10PM 42.6375 -81.7628 283° West 469 540 36,000  Level Cleveland Center
07:11PM 42.6689 -81.9469 283° West 469 540 36,000  Level Cleveland Center
07:12PM 42.7000 -82.1144 284° West 469 540 36,000  Level Cleveland Center
07:13PM 42.7269 -82.2903 282° West 469 540 36,000  Level Cleveland Center
07:14PM 42.7492 -82.4578 280° West 469 540 36,000  Level Cleveland Center
07:15PM 42.7631 -82.6306 276° West 469 540 36,000  Level Cleveland Center
07:16PM 42.7744 -82.8036 275° West 464 534 36,000  Level Cleveland Center
07:17PM 42.7875 -82.9767 276° West 464 534 36,000  Level Cleveland Center
07:18PM 42.7983 -83.1525 275° West 464 534 36,000  Level Cleveland Center
07:19PM 42.8092 -83.3228 275° West 464 534 36,000  Level Cleveland Center
07:20PM 42.8214 -83.4989 275° West 464 534 36,000  Level Cleveland Center
07:21PM 42.8314 -83.6719 275° West 464 534 36,000  Level Cleveland Center
07:22PM 42.8414 -83.8453 275° West 464 534 36,000 -480 Level Cleveland Center
07:23PM 42.8508 -84.0186 274° West 464 534 35,100 -1,200 Descending Cleveland Center
07:24PM 42.8600 -84.1919 274° West 464 534 33,600 -960 Descending Cleveland Center
07:26PM 42.8831 -84.5672 275° West 452 520 32,000 -540 Descending Chicago Center
07:27PM 42.8675 -84.7411 263° West 465 535 32,000  Level Chicago Center
07:28PM 42.8494 -84.9158 262° West 465 535 32,000  Level Chicago Center
07:29PM 42.8308 -85.0897 262° West 465 535 32,000 -180 Level Chicago Center
07:30PM 42.8122 -85.2636 262° West 465 535 31,700 -780 Descending Chicago Center
07:31PM 42.7892 -85.4717 261° West 463 533 30,400 -1,380 Descending Chicago Center
07:33PM 42.7611 -85.6406 257° West 457 526 28,900 -1,800 Descending Chicago Center
07:34PM 42.7306 -85.8097 256° West 456 525 26,700 -2,340 Descending Chicago Center
07:35PM 42.6997 -85.9775 256° West 455 524 24,100 -2,520 Descending Chicago Center
07:36PM 42.6700 -86.1403 256° West 445 512 21,500 -1,980 Descending Chicago Center
07:37PM 42.6408 -86.2997 256° West 435 501 20,100 -1,260 Descending Chicago Center
07:38PM 42.6114 -86.4481 255° West 412 474 19,000 -1,080 Descending Chicago Center
07:39PM 42.5836 -86.6000 256° West 414 476 17,900 -1,260 Descending Chicago Center
07:40PM 42.5478 -86.7772 255° West 409 471 16,500 -1,740 Descending Chicago Center
07:41PM 42.5100 -86.9142 250° West 392 451 14,400 -1,860 Descending Chicago Center
07:42PM 42.4739 -87.0467 250° West 374 430 12,700 -1,560 Descending Chicago Center
07:43PM 42.4375 -87.1728 249° West 369 425 11,200 -1,260 Descending Chicago Center
07:44PM 42.4017 -87.3031 250° West 369 425 10,100 -600 Descending Chicago Center
07:45PM 42.3661 -87.4347 250° West 311 358 10,000 -60 Descending Chicago Center
07:46PM 42.3378 -87.5322 249° West 286 329 10,000 -480 Level Chicago Center
07:47PM 42.2856 -87.5925 221° Southwest 253 291 9,100 -900 Descending Chicago Center
07:48PM 42.2294 -87.6381 211° Southwest 239 275 8,200 -540 Descending Chicago Center
07:49PM 42.1792 -87.6731 207° Southwest 210 242 8,100 -300 Descending Chicago Center
07:50PM 42.1158 -87.7158 207° Southwest 212 244 7,700 -600 Descending Chicago Center
07:51PM 42.0833 -87.7333 202° Southwest 206 237 7,200 -420 Descending Chicago TRACON
07:52PM 42.0833 -87.8167 270° West 201 231 7,100 -60 Descending Chicago TRACON
07:53PM 42.0833 -87.8833 270° West 212 244 7,100  Level Chicago TRACON
07:54PM 42.0667 -87.9667 255° West 199 229 7,100 -300 Level Chicago TRACON
07:55PM 42.0667 -88.0333 270° West 195 224 6,600 -1,020 Descending Chicago TRACON
07:56PM 42.0667 -88.1000 270° West 189 217 5,100 -1,500 Descending Chicago TRACON
07:56PM 42.0528 -88.1458 248° West 204 235 4,200 -1,260 Descending Chicago Center
07:57PM 42.0125 -88.1225 157° South 185 213 3,100 -1,140 Descending Chicago Center
07:58PM 42.0000 -88.1000 127° Southeast 176 203 2,700 -600 Descending Chicago TRACON
07:59PM 41.9833 -88.0333 109° East 175 201 2,300 -420 Descending Chicago TRACON